Time;durP1;ratioP1;P1;durP2;ratioP2;P2;SDS_P1;SDS_P2;PMS_P1;PMS_P2;Temp;Humidity;BMP_temperature;BMP_pressure;BME280_temperature;BME280_humidity;BME280_pressure;Samples;Min_cycle;Max_cycle;Signal;HPM_P1;HPM_P2
2022/03/10 00:02:14;;;;;;;30.60;24.17;;;;;;;-2.57;88.12;92857.84;5099602;28;20227;-80
2022/03/10 00:04:39;;;;;;;26.77;23.17;;;;;;;-2.47;88.46;92868.47;5097834;28;20173;-80
2022/03/10 00:07:05;;;;;;;29.47;23.20;;;;;;;-2.46;88.62;92859.81;5099999;28;20232;-80
2022/03/10 00:09:32;;;;;;;32.37;25.17;;;;;;;-2.26;88.09;92859.84;5099202;28;20292;-80
2022/03/10 00:11:58;;;;;;;29.67;25.27;;;;;;;-2.80;88.45;92801.19;5096615;28;20824;-81
2022/03/10 00:14:24;;;;;;;27.17;24.27;;;;;;;-2.51;86.55;92784.72;5097078;28;20175;-80
2022/03/10 00:16:50;;;;;;;27.27;22.90;;;;;;;-1.63;85.77;92852.34;5100036;28;20177;-81
2022/03/10 00:19:16;;;;;;;26.83;24.07;;;;;;;-1.84;85.47;92839.78;5098960;28;20936;-80
2022/03/10 00:21:46;;;;;;;26.30;23.40;;;;;;;-2.48;85.33;92749.34;5098455;28;20191;-81
2022/03/10 00:24:12;;;;;;;25.97;21.13;;;;;;;-2.11;84.68;92853.56;5098489;28;20238;-79
2022/03/10 00:26:37;;;;;;;25.43;22.27;;;;;;;-2.30;86.03;92821.09;5093928;28;20185;-79
2022/03/10 00:29:06;;;;;;;25.13;20.27;;;;;;;-2.33;85.06;92849.63;5097908;28;20228;-77
2022/03/10 00:31:32;;;;;;;22.90;20.60;;;;;;;-2.13;85.13;92844.50;5075885;28;20190;-78
2022/03/10 00:33:58;;;;;;;25.07;22.13;;;;;;;-2.29;85.05;92850.78;5099292;28;20282;-78
2022/03/10 00:36:24;;;;;;;24.43;21.80;;;;;;;-2.41;86.10;92851.59;5097359;28;20206;-78
2022/03/10 00:38:50;;;;;;;23.70;21.00;;;;;;;-2.45;85.89;92845.28;5097672;28;20223;-79
2022/03/10 00:41:16;;;;;;;23.83;20.30;;;;;;;-2.10;84.41;92839.78;5097800;28;20179;-78
2022/03/10 00:43:41;;;;;;;27.50;20.03;;;;;;;-2.44;85.16;92837.41;5096469;28;20280;-77
2022/03/10 00:46:07;;;;;;;26.77;21.37;;;;;;;-2.67;86.02;92821.66;5098604;28;20180;-78
2022/03/10 00:48:32;;;;;;;25.30;22.53;;;;;;;-2.82;85.86;92769.97;5098946;28;20220;-78
2022/03/10 00:50:58;;;;;;;28.30;23.10;;;;;;;-2.37;85.06;92837.44;5100497;28;20203;-78
2022/03/10 00:53:23;;;;;;;28.33;24.30;;;;;;;-2.58;86.35;92830.72;5080789;28;20221;-78
2022/03/10 00:55:49;;;;;;;27.70;23.13;;;;;;;-2.56;86.58;92821.09;5098635;28;20192;-79
2022/03/10 00:58:14;;;;;;;27.30;23.27;;;;;;;-2.44;86.87;92822.09;5097279;28;20216;-79
2022/03/10 01:00:40;;;;;;;28.37;22.53;;;;;;;-2.85;86.40;92779.78;5097813;28;20195;-79
2022/03/10 01:03:05;;;;;;;26.93;21.33;;;;;;;-2.80;86.35;92815.75;5097452;28;20227;-79
2022/03/10 01:05:31;;;;;;;28.83;24.30;;;;;;;-2.72;86.91;92833.44;5097970;28;20188;-79
2022/03/10 01:07:57;;;;;;;28.40;22.33;;;;;;;-2.61;87.04;92828.53;5099073;28;20223;-79
2022/03/10 01:10:23;;;;;;;29.67;23.70;;;;;;;-2.20;86.25;92818.16;5097995;28;20211;-79
2022/03/10 01:12:48;;;;;;;25.93;21.83;;;;;;;-2.15;85.80;92806.34;5096919;28;20224;-79
2022/03/10 01:15:25;;;;;;;25.10;21.77;;;;;;;-2.15;85.46;92821.69;5100305;28;20160;-78
2022/03/10 01:17:51;;;;;;;28.50;22.43;;;;;;;-1.81;83.96;92831.72;5096891;28;20232;-78
2022/03/10 01:20:18;;;;;;;29.50;22.17;;;;;;;-1.73;82.51;92830.72;5098896;28;20195;-79
2022/03/10 01:22:44;;;;;;;25.60;22.17;;;;;;;-1.73;83.22;92811.03;5098996;28;20239;-79
2022/03/10 01:25:10;;;;;;;24.47;21.67;;;;;;;-2.20;83.68;92833.50;5096711;28;20184;-79
2022/03/10 01:27:36;;;;;;;26.33;22.13;;;;;;;-2.38;85.14;92808.50;5099022;28;20254;-79
2022/03/10 01:30:01;;;;;;;26.23;23.23;;;;;;;-2.66;86.49;92832.69;5098753;28;20223;-79
2022/03/10 01:32:27;;;;;;;26.70;23.17;;;;;;;-2.94;86.11;92798.81;5095691;28;20301;-78
2022/03/10 01:34:53;;;;;;;24.80;20.60;;;;;;;-2.77;85.50;92807.69;5096831;28;20311;-78
2022/03/10 01:37:19;;;;;;;21.50;19.30;;;;;;;-2.57;85.68;92832.31;5081733;28;20257;-78
2022/03/10 01:39:45;;;;;;;20.00;18.13;;;;;;;-2.36;83.79;92834.69;5096459;28;20198;-78
2022/03/10 01:42:11;;;;;;;21.23;19.03;;;;;;;-2.76;84.19;92814.38;5099399;28;20273;-79
2022/03/10 01:44:37;;;;;;;21.07;18.97;;;;;;;-3.07;84.24;92760.47;5096122;28;20200;-78
2022/03/10 01:47:05;;;;;;;22.47;20.33;;;;;;;-2.26;83.38;92814.63;5099135;28;20188;-78
2022/03/10 01:49:32;;;;;;;22.03;19.83;;;;;;;-2.26;82.21;92773.72;5095790;28;20214;-79
2022/03/10 01:51:58;;;;;;;19.90;18.00;;;;;;;-2.51;82.59;92754.88;5099396;28;20184;-78
2022/03/10 01:54:24;;;;;;;20.67;18.53;;;;;;;-1.69;81.77;92819.88;5099426;28;20205;-78
2022/03/10 01:56:50;;;;;;;21.10;19.00;;;;;;;-2.14;81.83;92823.28;5098229;28;20187;-78
2022/03/10 01:59:18;;;;;;;19.70;17.80;;;;;;;-1.92;81.09;92800.84;5095171;28;20322;-78
2022/03/10 02:01:44;;;;;;;20.53;18.33;;;;;;;-1.61;80.44;92816.31;5096843;28;20187;-79
2022/03/10 02:04:10;;;;;;;21.53;19.43;;;;;;;-1.90;80.55;92820.09;5096184;28;20216;-78
2022/03/10 02:06:36;;;;;;;21.07;18.87;;;;;;;-1.84;80.58;92821.09;5096182;28;20180;-78
2022/03/10 02:11:47;;;;;;;20.97;18.80;;;;;;;-1.94;79.75;92807.91;5097605;28;21738;-78
2022/03/10 02:19:42;;;;;;;19.67;17.07;;;;;;;-1.88;79.26;92818.13;5100590;28;20208;-79
2022/03/10 02:22:09;;;;;;;19.87;17.80;;;;;;;-1.80;79.49;92810.25;5102538;28;20263;-78
2022/03/10 02:24:40;;;;;;;20.40;18.47;;;;;;;-1.83;79.11;92820.91;5096762;28;20192;-79
2022/03/10 02:27:19;;;;;;;20.03;18.03;;;;;;;-1.79;79.12;92816.94;5101144;28;20205;-79
2022/03/10 02:29:47;;;;;;;19.70;17.80;;;;;;;-1.88;79.80;92818.13;5100215;28;20223;-79
2022/03/10 02:32:13;;;;;;;19.63;17.33;;;;;;;-1.94;78.80;92824.06;5097811;28;20262;-79
2022/03/10 02:34:39;;;;;;;19.30;17.37;;;;;;;-2.05;79.77;92831.53;5100958;28;20239;-78
2022/03/10 02:37:05;;;;;;;18.23;16.43;;;;;;;-2.34;79.88;92830.16;5104776;28;20201;-78
2022/03/10 02:39:31;;;;;;;19.43;17.33;;;;;;;-2.65;81.29;92785.69;5104767;28;20195;-79
2022/03/10 02:41:57;;;;;;;19.50;17.20;;;;;;;-2.16;81.09;92839.78;5098618;28;20188;-78
2022/03/10 02:44:22;;;;;;;20.90;18.83;;;;;;;-2.29;81.11;92829.56;5100633;28;20212;-78
2022/03/10 02:46:48;;;;;;;21.20;19.17;;;;;;;-2.76;81.34;92842.47;5101297;28;20185;-78
2022/03/10 02:49:13;;;;;;;18.40;16.50;;;;;;;-2.68;81.73;92832.88;5099092;28;20231;-76
2022/03/10 02:51:39;;;;;;;18.87;16.97;;;;;;;-2.54;80.11;92780.81;5102489;28;20196;-78
2022/03/10 02:54:04;;;;;;;20.30;18.20;;;;;;;-2.67;79.87;92816.56;5100031;28;20262;-79
2022/03/10 02:56:30;;;;;;;18.87;16.87;;;;;;;-2.65;79.53;92812.03;5099639;28;20192;-78
2022/03/10 02:58:55;;;;;;;21.03;17.33;;;;;;;-2.47;79.56;92832.69;5098072;28;20841;-78
2022/03/10 03:01:21;;;;;;;19.73;17.70;;;;;;;-2.35;79.16;92832.91;5082516;28;20753;-79
2022/03/10 03:03:46;;;;;;;18.97;17.13;;;;;;;-2.81;80.28;92829.47;5099295;28;20215;-78
2022/03/10 03:06:11;;;;;;;18.57;16.67;;;;;;;-2.88;81.64;92801.38;5100126;28;20280;-78
2022/03/10 03:08:37;;;;;;;20.63;18.23;;;;;;;-2.88;82.11;92849.88;5098087;28;20228;-78
2022/03/10 03:11:02;;;;;;;18.90;16.90;;;;;;;-3.07;82.59;92850.63;5101361;28;20176;-78
2022/03/10 03:13:28;;;;;;;19.10;17.13;;;;;;;-2.69;82.15;92846.59;5098220;28;20244;-78
2022/03/10 03:15:53;;;;;;;30.10;22.07;;;;;;;-2.48;81.00;92855.88;5101163;28;20188;-79
2022/03/10 03:18:19;;;;;;;23.97;21.47;;;;;;;-2.87;81.04;92818.28;5100805;28;20238;-78
2022/03/10 03:20:45;;;;;;;26.90;22.47;;;;;;;-2.90;81.21;92862.09;5100128;28;20180;-78
2022/03/10 03:23:10;;;;;;;26.33;21.80;;;;;;;-3.27;81.41;92829.34;5101065;28;20251;-79
2022/03/10 03:25:36;;;;;;;26.27;20.97;;;;;;;-3.06;81.54;92839.44;5099800;28;20199;-78
2022/03/10 03:28:01;;;;;;;25.53;20.53;;;;;;;-2.90;81.54;92863.84;5100428;28;20232;-78
2022/03/10 03:30:27;;;;;;;27.53;21.57;;;;;;;-3.28;81.76;92810.69;5096180;28;20215;-78
2022/03/10 03:32:52;;;;;;;25.97;21.47;;;;;;;-3.31;80.61;92825.59;5099052;28;20247;-78
2022/03/10 03:35:18;;;;;;;23.03;20.50;;;;;;;-3.34;80.58;92859.94;5095779;28;20187;-78
2022/03/10 03:37:43;;;;;;;25.77;19.97;;;;;;;-3.94;82.09;92836.06;5101184;28;20232;-78
2022/03/10 03:40:12;;;;;;;23.87;21.30;;;;;;;-3.37;81.26;92867.97;5102345;28;20253;-78
2022/03/10 03:42:38;;;;;;;27.10;21.70;;;;;;;-3.27;79.38;92876.06;5100836;28;20228;-78
2022/03/10 03:45:04;;;;;;;23.93;20.83;;;;;;;-3.43;81.03;92873.03;5100635;28;20219;-78
2022/03/10 03:47:30;;;;;;;25.23;19.90;;;;;;;-3.64;79.50;92855.25;5098937;28;20228;-78
2022/03/10 03:49:56;;;;;;;22.07;19.67;;;;;;;-4.38;79.61;92799.84;5098450;28;20218;-78
2022/03/10 03:52:21;;;;;;;21.47;19.27;;;;;;;-4.58;81.65;92842.22;5083302;28;20224;-77
2022/03/10 03:54:46;;;;;;;25.50;19.20;;;;;;;-3.86;82.10;92877.47;5099745;28;20176;-79
2022/03/10 03:57:12;;;;;;;21.70;19.17;;;;;;;-3.53;79.41;92852.97;5099895;28;20188;-78
2022/03/10 03:59:37;;;;;;;23.00;19.27;;;;;;;-3.86;78.13;92836.69;5100965;28;20196;-78
2022/03/10 04:02:03;;;;;;;24.47;18.63;;;;;;;-3.90;78.10;92865.28;5099526;28;20260;-78
2022/03/10 04:04:29;;;;;;;22.17;19.63;;;;;;;-4.27;79.63;92880.88;5098354;28;20195;-78
2022/03/10 04:06:55;;;;;;;28.73;22.10;;;;;;;-4.55;80.32;92865.56;5101417;28;20216;-78
2022/03/10 04:09:20;;;;;;;29.67;22.67;;;;;;;-4.81;81.17;92846.69;5100748;28;20325;-78
2022/03/10 04:11:46;;;;;;;28.43;22.63;;;;;;;-4.48;80.88;92886.00;5098024;28;20197;-78
2022/03/10 04:14:12;;;;;;;25.00;19.07;;;;;;;-4.26;79.35;92846.78;5097336;28;20219;-78
2022/03/10 04:16:38;;;;;;;22.93;19.17;;;;;;;-4.03;78.82;92888.91;5096039;28;20188;-78
2022/03/10 04:19:05;;;;;;;20.80;18.20;;;;;;;-4.35;78.80;92822.41;5099574;28;20228;-78
2022/03/10 04:21:31;;;;;;;19.90;17.57;;;;;;;-4.18;79.13;92856.84;5100944;28;20258;-78
2022/03/10 04:23:57;;;;;;;24.57;19.20;;;;;;;-4.15;78.57;92846.28;5102013;28;20232;-78
2022/03/10 04:26:23;;;;;;;21.63;19.37;;;;;;;-4.37;79.51;92885.53;5098715;28;20187;-78
2022/03/10 04:28:48;;;;;;;20.43;18.33;;;;;;;-4.33;79.79;92884.16;5098653;28;20250;-78
2022/03/10 04:31:14;;;;;;;26.67;20.83;;;;;;;-4.93;80.51;92858.31;5102235;28;20215;-78
2022/03/10 04:33:39;;;;;;;31.13;20.57;;;;;;;-4.48;80.37;92893.66;5096937;28;20224;-78
2022/03/10 04:36:04;;;;;;;29.57;20.77;;;;;;;-4.55;79.84;92892.78;5082805;28;20184;-78
2022/03/10 04:38:31;;;;;;;20.97;18.00;;;;;;;-4.54;80.28;92896.88;5100055;28;20227;-79
2022/03/10 04:40:56;;;;;;;20.60;17.20;;;;;;;-4.03;78.75;92898.34;5099855;28;20199;-79
2022/03/10 04:43:22;;;;;;;19.57;17.57;;;;;;;-4.69;79.00;92868.16;5099812;28;20212;-76
2022/03/10 04:45:47;;;;;;;18.70;16.80;;;;;;;-4.86;79.47;92892.25;5098904;28;20188;-77
2022/03/10 04:48:13;;;;;;;18.73;16.97;;;;;;;-4.46;79.71;92907.75;5090911;28;20224;-76
2022/03/10 04:50:38;;;;;;;18.40;16.60;;;;;;;-4.86;80.05;92915.16;5098287;28;20300;-77
2022/03/10 04:53:05;;;;;;;18.13;16.23;;;;;;;-4.63;79.84;92905.63;5098447;28;20248;-75
2022/03/10 04:55:31;;;;;;;19.37;17.37;;;;;;;-4.25;78.08;92917.16;5081911;28;20197;-76
2022/03/10 04:57:56;;;;;;;18.27;16.27;;;;;;;-4.00;76.88;92898.75;5097290;28;20232;-76
2022/03/10 05:00:22;;;;;;;16.77;15.17;;;;;;;-4.05;76.72;92905.38;5095888;28;20525;-77
2022/03/10 05:02:48;;;;;;;19.80;17.90;;;;;;;-4.07;76.19;92892.03;5096900;28;20223;-76
2022/03/10 05:05:14;;;;;;;17.70;16.00;;;;;;;-4.61;77.17;92862.94;5098094;28;20185;-82
2022/03/10 05:07:41;;;;;;;19.10;17.13;;;;;;;-4.06;79.12;92924.97;5098347;28;20235;-81
2022/03/10 05:10:08;;;;;;;18.63;16.83;;;;;;;-3.69;76.79;92906.06;5099128;28;20211;-79
2022/03/10 05:12:46;;;;;;;19.37;17.43;;;;;;;-3.28;75.41;92929.84;5094753;28;20235;-78
2022/03/10 05:15:12;;;;;;;19.70;17.73;;;;;;;-3.05;75.49;92950.00;5096957;28;20190;-77
2022/03/10 05:17:38;;;;;;;19.33;17.30;;;;;;;-2.90;74.67;92951.47;5095146;28;20224;-82
2022/03/10 05:20:05;;;;;;;21.13;18.83;;;;;;;-2.73;72.93;92949.38;5098437;28;20224;-82
2022/03/10 05:23:00;;;;;;;19.00;17.10;;;;;;;-3.35;74.15;92957.09;5098643;28;20233;-80
2022/03/10 05:25:36;;;;;;;19.83;18.00;;;;;;;-3.97;74.91;92926.41;5097158;28;20291;-83
2022/03/10 05:28:03;;;;;;;21.87;17.97;;;;;;;-3.75;74.94;92965.47;5094510;28;20291;-78
2022/03/10 05:30:28;;;;;;;22.93;19.67;;;;;;;-3.62;74.54;92957.88;5095684;28;20238;-84
2022/03/10 05:32:54;;;;;;;23.30;20.80;;;;;;;-3.36;74.88;92974.19;5095190;28;20227;-84
2022/03/10 05:35:20;;;;;;;20.47;18.30;;;;;;;-3.37;74.87;92982.81;5097152;28;20189;-85
2022/03/10 05:37:48;;;;;;;21.20;19.03;;;;;;;-3.09;73.57;92990.44;5076629;28;20229;-94
2022/03/10 05:40:16;;;;;;;23.00;18.37;;;;;;;-3.57;73.53;92987.00;5081629;28;20256;-92
2022/03/10 05:42:43;;;;;;;19.27;17.27;;;;;;;-4.11;76.14;92990.22;5097672;28;20220;-90
2022/03/10 05:45:10;;;;;;;22.20;17.33;;;;;;;-4.49;76.07;92907.34;5095007;28;20165;-88
2022/03/10 05:47:36;;;;;;;17.63;15.90;;;;;;;-3.55;74.13;92991.91;5094680;28;20584;-82
2022/03/10 05:50:03;;;;;;;18.97;17.23;;;;;;;-3.90;75.65;92980.81;5094747;28;20204;-86
2022/03/10 05:52:28;;;;;;;19.30;17.40;;;;;;;-3.50;75.50;93012.53;5096130;28;20243;-79
2022/03/10 05:54:53;;;;;;;18.30;16.50;;;;;;;-3.50;74.41;93015.06;5098953;28;20247;-82
2022/03/10 05:57:19;;;;;;;18.23;16.73;;;;;;;-3.61;71.99;92964.59;5098711;28;20272;-81
2022/03/10 05:59:44;;;;;;;14.47;13.37;;;;;;;-3.58;71.16;92997.38;5101330;28;20203;-82
2022/03/10 06:02:10;;;;;;;16.20;14.77;;;;;;;-3.75;71.84;92975.66;5080537;28;20218;-84
2022/03/10 06:04:35;;;;;;;17.00;15.17;;;;;;;-3.86;71.68;93002.41;5095245;28;20191;-86
2022/03/10 06:07:01;;;;;;;16.30;14.43;;;;;;;-3.54;73.39;93021.53;5101461;28;20270;-82
2022/03/10 06:09:26;;;;;;;15.83;14.63;;;;;;;-3.58;71.45;93020.34;5102541;28;20207;-83
2022/03/10 06:11:52;;;;;;;16.13;14.77;;;;;;;-3.38;70.72;92996.53;5082860;28;20181;-84
2022/03/10 06:14:18;;;;;;;16.17;14.70;;;;;;;-3.68;69.66;93022.41;5099700;28;20208;-82
2022/03/10 06:16:44;;;;;;;16.40;15.03;;;;;;;-3.55;71.66;92994.47;5099376;28;20202;-83
2022/03/10 06:19:09;;;;;;;18.47;16.73;;;;;;;-3.03;70.47;93030.53;5098475;28;20239;-81
2022/03/10 06:21:35;;;;;;;17.17;15.57;;;;;;;-2.82;69.12;93033.06;5100490;28;20194;-83
2022/03/10 06:24:01;;;;;;;14.60;13.40;;;;;;;-3.39;68.98;93010.28;5102553;28;20209;-83
2022/03/10 06:26:26;;;;;;;16.30;15.03;;;;;;;-2.95;69.95;93030.41;5101584;28;20217;-84
2022/03/10 06:28:52;;;;;;;14.03;12.83;;;;;;;-3.14;68.52;93031.06;5100746;28;20228;-83
2022/03/10 06:31:17;;;;;;;13.50;12.17;;;;;;;-3.44;67.42;93038.09;5098609;28;20197;-82
2022/03/10 06:33:42;;;;;;;15.73;14.53;;;;;;;-2.98;67.22;93045.31;5099522;28;21310;-82
2022/03/10 06:36:08;;;;;;;13.77;12.50;;;;;;;-3.36;65.79;93032.06;5102978;28;20217;-80
2022/03/10 06:38:33;;;;;;;15.87;14.57;;;;;;;-2.99;67.29;93026.66;5101465;28;20232;-84
2022/03/10 06:40:59;;;;;;;20.20;15.53;;;;;;;-3.25;64.96;92985.63;5098953;28;20180;-89
2022/03/10 06:43:24;;;;;;;26.03;18.27;;;;;;;-3.39;64.53;92994.16;5100743;28;20220;-84
2022/03/10 06:45:50;;;;;;;18.63;15.57;;;;;;;-2.91;66.52;93057.13;5098978;28;20191;-87
2022/03/10 06:48:15;;;;;;;13.70;12.50;;;;;;;-2.69;64.69;93022.88;5098625;28;20223;-87
2022/03/10 06:50:41;;;;;;;13.77;12.40;;;;;;;-2.32;63.11;93053.13;5100907;28;20232;-87
2022/03/10 06:53:06;;;;;;;15.10;13.90;;;;;;;-2.28;63.23;93053.53;5100961;28;20228;-88
2022/03/10 06:55:32;;;;;;;13.87;12.87;;;;;;;-3.05;62.52;93006.19;5098393;28;20189;-86
2022/03/10 06:57:57;;;;;;;13.40;12.50;;;;;;;-2.60;61.77;93008.19;5098459;28;20252;-91
2022/03/10 07:00:24;;;;;;;14.00;12.87;;;;;;;-2.30;62.25;93066.50;5097944;28;20185;-89
2022/03/10 07:02:50;;;;;;;13.70;12.90;;;;;;;-2.21;60.82;93060.25;5082092;28;20319;-90
2022/03/10 07:05:16;;;;;;;14.33;13.43;;;;;;;-2.01;60.12;93062.91;5100535;28;20199;-86
2022/03/10 07:07:41;;;;;;;13.07;12.00;;;;;;;-1.79;58.14;93062.56;5098828;28;20228;-81
2022/03/10 07:10:08;;;;;;;14.60;13.60;;;;;;;-2.00;57.15;93072.94;5101877;28;20223;-80
2022/03/10 07:12:41;;;;;;;13.10;12.13;;;;;;;-2.12;59.09;93071.88;5098982;28;20227;-80
2022/03/10 07:15:08;;;;;;;14.37;13.30;;;;;;;-2.18;57.89;93067.53;5090030;28;20690;-85
2022/03/10 07:17:34;;;;;;;13.03;12.13;;;;;;;-2.25;57.79;93071.84;5097438;28;20248;-84
2022/03/10 07:19:59;;;;;;;14.17;13.27;;;;;;;-2.39;58.45;93075.31;5080171;28;20226;-85
2022/03/10 07:22:28;;;;;;;14.43;13.33;;;;;;;-2.16;58.04;93075.03;5098289;28;20228;-83
2022/03/10 07:24:53;;;;;;;14.03;13.00;;;;;;;-2.19;58.08;93086.44;5102271;28;20188;-82
2022/03/10 07:27:19;;;;;;;15.87;14.67;;;;;;;-2.07;59.80;93066.22;5093839;28;20228;-82
2022/03/10 07:29:44;;;;;;;13.83;12.83;;;;;;;-2.65;58.15;92937.22;5100953;28;20203;-83
2022/03/10 07:32:10;;;;;;;13.83;12.93;;;;;;;-2.81;55.25;92937.56;5098408;28;20193;-82
2022/03/10 07:34:35;;;;;;;14.27;13.20;;;;;;;-1.79;57.91;93083.03;5097648;28;20188;-82
2022/03/10 07:37:01;;;;;;;13.67;12.60;;;;;;;-2.23;58.67;93006.00;5097921;28;20185;-83
2022/03/10 07:39:27;;;;;;;12.87;12.07;;;;;;;-1.74;58.64;93044.06;5096661;28;20173;-82
2022/03/10 07:41:53;;;;;;;13.63;12.30;;;;;;;-1.05;55.25;93086.31;5097911;28;20211;-80
2022/03/10 07:44:18;;;;;;;14.13;13.23;;;;;;;-1.54;57.29;93072.28;5096687;28;20272;-82
2022/03/10 07:46:44;;;;;;;12.83;11.93;;;;;;;-1.65;57.84;93066.72;5100268;28;20204;-82
2022/03/10 07:49:09;;;;;;;14.63;13.53;;;;;;;-1.44;57.22;93049.63;5098183;28;20239;-82
2022/03/10 07:51:35;;;;;;;13.57;12.47;;;;;;;-1.06;56.14;93094.19;5098313;28;20223;-86
2022/03/10 07:54:01;;;;;;;13.70;12.77;;;;;;;-1.08;55.86;93101.25;5100453;28;20251;-86
2022/03/10 07:56:26;;;;;;;16.23;14.93;;;;;;;-1.21;55.83;93096.91;5099927;28;20176;-80
2022/03/10 07:58:52;;;;;;;18.47;16.77;;;;;;;-1.02;56.96;93100.47;5099394;28;20220;-83
2022/03/10 08:01:17;;;;;;;15.47;14.33;;;;;;;-1.00;57.29;93083.16;5080944;28;20267;-83
2022/03/10 08:03:46;;;;;;;16.97;15.67;;;;;;;-0.81;54.78;93072.88;5093243;28;20212;-84
2022/03/10 08:06:12;;;;;;;14.07;13.03;;;;;;;-0.57;54.61;93092.78;5096209;28;20212;-83
2022/03/10 08:08:38;;;;;;;13.67;12.67;;;;;;;-0.40;50.09;93124.69;5100948;28;20239;-83
2022/03/10 08:11:05;;;;;;;12.53;11.53;;;;;;;-0.92;50.38;93122.16;5099199;28;20214;-84
2022/03/10 08:13:31;;;;;;;12.73;11.93;;;;;;;-1.13;51.73;93106.19;5100054;28;20722;-84
2022/03/10 08:15:57;;;;;;;13.10;12.40;;;;;;;-1.23;51.10;93103.22;5098180;28;20219;-84
2022/03/10 08:18:23;;;;;;;13.43;12.37;;;;;;;-1.84;54.49;93080.25;5096325;28;20220;-83
2022/03/10 08:20:49;;;;;;;12.40;11.50;;;;;;;-1.57;54.16;93057.31;5100528;28;20212;-86
2022/03/10 08:23:16;;;;;;;12.00;11.37;;;;;;;-0.57;50.99;93099.66;5098963;28;20244;-84
2022/03/10 08:25:42;;;;;;;15.53;14.50;;;;;;;-0.30;46.89;93093.50;5097128;28;20197;-83
2022/03/10 08:28:08;;;;;;;11.73;11.13;;;;;;;-0.60;47.99;93105.19;5096500;28;20239;-83
2022/03/10 08:30:34;;;;;;;13.03;12.23;;;;;;;-0.72;48.50;93137.53;5100573;28;21143;-82
2022/03/10 08:32:59;;;;;;;12.83;12.03;;;;;;;-1.32;49.00;93083.94;5098427;28;20216;-83
2022/03/10 08:35:25;;;;;;;11.27;10.67;;;;;;;-0.54;48.50;93141.09;5098996;28;20201;-83
2022/03/10 08:37:51;;;;;;;12.27;11.57;;;;;;;-0.47;48.32;93138.53;5094477;28;20220;-84
2022/03/10 08:40:19;;;;;;;16.83;15.40;;;;;;;-0.78;47.40;93094.78;5094947;28;20200;-84
2022/03/10 08:42:46;;;;;;;13.97;13.07;;;;;;;-0.06;47.31;93123.63;5096144;28;20212;-83
2022/03/10 08:45:12;;;;;;;12.83;11.93;;;;;;;0.02;48.02;93079.00;5082947;28;20181;-83
2022/03/10 08:47:38;;;;;;;12.73;11.93;;;;;;;0.80;47.98;93125.63;5096708;28;20236;-80
2022/03/10 08:50:04;;;;;;;12.63;11.83;;;;;;;0.14;45.01;93103.81;5096990;28;20234;-80
2022/03/10 08:52:30;;;;;;;11.63;10.80;;;;;;;0.27;45.81;93108.91;5095446;28;20227;-79
2022/03/10 08:54:55;;;;;;;13.13;12.33;;;;;;;0.13;45.90;93106.56;5099227;28;20205;-83
2022/03/10 08:57:21;;;;;;;12.47;11.67;;;;;;;0.29;46.42;93119.75;5096702;28;20330;-86
2022/03/10 08:59:46;;;;;;;10.97;10.33;;;;;;;0.15;47.82;93120.81;5100336;28;20181;-85
2022/03/10 09:02:12;;;;;;;12.83;11.93;;;;;;;0.23;46.90;93092.34;5097764;28;20223;-87
2022/03/10 09:04:38;;;;;;;12.70;11.90;;;;;;;0.24;46.74;93118.78;5100225;28;20665;-89
2022/03/10 09:07:04;;;;;;;11.07;10.37;;;;;;;-0.20;46.57;93122.06;5093717;28;20228;-84
2022/03/10 09:09:29;;;;;;;12.57;11.77;;;;;;;-0.55;49.06;93118.22;5096442;28;20203;-87
2022/03/10 09:11:55;;;;;;;12.17;11.37;;;;;;;-0.71;50.26;93128.84;5078460;28;20227;-80
2022/03/10 09:14:20;;;;;;;12.23;11.43;;;;;;;-0.41;51.17;93123.13;5097413;28;20177;-80
2022/03/10 09:16:46;;;;;;;11.87;11.10;;;;;;;0.31;45.85;93099.00;5096132;28;20204;-78
2022/03/10 09:19:11;;;;;;;13.03;12.13;;;;;;;0.02;47.55;93077.22;5098840;28;20215;-79
2022/03/10 09:21:37;;;;;;;12.57;11.87;;;;;;;0.89;46.66;93098.66;5098806;28;20219;-79
2022/03/10 09:24:02;;;;;;;11.73;10.93;;;;;;;1.61;45.04;93118.69;5096487;28;20246;-79
2022/03/10 09:26:28;;;;;;;13.07;12.13;;;;;;;2.01;45.78;93093.34;5077876;28;20183;-80
2022/03/10 09:28:53;;;;;;;10.70;10.10;;;;;;;2.83;44.42;93112.31;5095082;28;20291;-79
2022/03/10 09:31:19;;;;;;;11.93;11.23;;;;;;;3.32;38.65;93090.56;5095821;28;20214;-79
2022/03/10 09:33:46;;;;;;;13.40;12.60;;;;;;;3.17;40.60;93106.50;5096175;28;20216;-80
2022/03/10 09:36:11;;;;;;;11.37;10.73;;;;;;;0.86;40.64;93114.50;5099718;28;20181;-80
2022/03/10 09:38:37;;;;;;;12.43;11.73;;;;;;;-0.26;43.27;93110.06;5095133;28;20231;-80
2022/03/10 09:41:03;;;;;;;17.30;15.30;;;;;;;0.82;43.56;93108.22;5095820;28;20185;-79
2022/03/10 09:43:29;;;;;;;13.57;12.40;;;;;;;1.51;42.02;93116.59;5094621;28;20221;-80
2022/03/10 09:45:55;;;;;;;15.90;14.53;;;;;;;1.63;44.51;93117.44;5095230;28;20216;-80
2022/03/10 09:48:21;;;;;;;12.13;11.43;;;;;;;1.11;44.72;93099.09;5094559;28;20216;-80
2022/03/10 09:50:48;;;;;;;13.93;13.13;;;;;;;0.82;42.66;93097.94;5094431;28;20216;-81
2022/03/10 09:53:15;;;;;;;16.77;15.40;;;;;;;0.43;46.49;93098.16;5092647;28;20295;-79
2022/03/10 09:55:43;;;;;;;16.53;15.13;;;;;;;0.12;45.22;93094.75;5094483;28;20645;-79
2022/03/10 09:58:09;;;;;;;13.87;12.73;;;;;;;0.24;45.12;93121.34;5094896;28;20219;-79
2022/03/10 10:00:34;;;;;;;12.57;11.57;;;;;;;0.50;46.54;93093.00;5095743;28;20278;-79
2022/03/10 10:03:00;;;;;;;16.37;15.00;;;;;;;0.92;46.15;93123.97;5096301;28;20239;-79
2022/03/10 10:05:31;;;;;;;12.87;11.87;;;;;;;0.60;43.94;93124.16;5096364;28;20213;-79
2022/03/10 10:08:05;;;;;;;13.70;12.80;;;;;;;0.26;45.04;93124.50;5093254;28;20224;-80
2022/03/10 10:10:33;;;;;;;12.73;11.93;;;;;;;0.55;45.23;93131.69;5096457;28;20219;-78
2022/03/10 10:13:04;;;;;;;13.67;12.77;;;;;;;0.61;44.25;93130.88;5095701;28;21174;-79
2022/03/10 10:15:53;;;;;;;12.50;11.30;;;;;;;0.47;45.74;93135.28;5094214;28;20654;-77
2022/03/10 10:18:19;;;;;;;12.27;11.50;;;;;;;0.89;44.37;93134.66;5094613;28;20216;-77
2022/03/10 10:20:46;;;;;;;27.80;23.33;;;;;;;0.45;45.55;93133.91;5096762;28;20181;-79
2022/03/10 10:23:32;;;;;;;11.57;10.73;;;;;;;0.28;45.96;93131.00;5093636;28;20228;-79
2022/03/10 10:26:02;;;;;;;11.67;10.87;;;;;;;0.63;48.16;93134.00;5096108;28;20195;-77
2022/03/10 10:28:31;;;;;;;12.60;11.60;;;;;;;1.22;43.89;93135.22;5093895;28;20228;-78
2022/03/10 10:30:59;;;;;;;12.53;11.73;;;;;;;0.24;44.54;93126.47;5097740;28;20234;-78
2022/03/10 10:33:25;;;;;;;13.53;12.53;;;;;;;1.04;43.14;93140.28;5097437;28;20238;-79
2022/03/10 10:36:13;;;;;;;12.03;11.13;;;;;;;0.95;41.37;93133.06;5098055;28;20224;-79
2022/03/10 10:38:39;;;;;;;11.53;10.83;;;;;;;-0.03;44.50;93118.88;5095873;28;20252;-78
2022/03/10 10:41:18;;;;;;;13.37;12.40;;;;;;;0.72;44.23;93143.03;5098444;28;20203;-79
2022/03/10 10:43:49;;;;;;;12.43;11.63;;;;;;;1.07;44.01;93132.19;5097502;28;20223;-78
2022/03/10 10:46:43;;;;;;;11.77;11.00;;;;;;;0.84;42.94;93116.50;5101400;28;20176;-79
2022/03/10 10:49:16;;;;;;;12.17;11.43;;;;;;;0.80;41.90;93140.25;5095175;28;20264;-79
2022/03/10 10:51:45;;;;;;;11.20;10.50;;;;;;;0.07;43.63;93118.47;5098342;28;20237;-79
2022/03/10 10:54:27;;;;;;;13.93;12.93;;;;;;;-0.01;43.47;93121.25;5095912;28;20305;-79
2022/03/10 10:56:53;;;;;;;12.23;11.53;;;;;;;0.06;43.93;93142.56;5097782;28;20261;-78
2022/03/10 10:59:29;;;;;;;12.50;11.77;;;;;;;0.00;45.37;93139.00;5096729;28;20215;-79
2022/03/10 11:02:12;;;;;;;12.00;11.30;;;;;;;0.19;44.33;93131.47;5095177;28;20192;-80
2022/03/10 11:04:44;;;;;;;12.43;11.63;;;;;;;0.18;42.47;93129.88;5095532;28;20199;-80
2022/03/10 11:07:11;;;;;;;12.93;12.13;;;;;;;-0.20;45.07;93070.78;5079430;28;20228;-79
2022/03/10 11:09:39;;;;;;;11.50;10.80;;;;;;;0.61;44.49;93121.38;5096074;28;20236;-78
2022/03/10 11:12:05;;;;;;;12.67;11.87;;;;;;;0.32;43.15;93065.44;5096727;28;20196;-79
2022/03/10 11:14:31;;;;;;;11.20;10.60;;;;;;;-0.67;42.01;92981.38;5098232;28;20197;-80
2022/03/10 11:16:58;;;;;;;12.20;11.40;;;;;;;-0.01;43.49;93100.72;5098042;28;20177;-78
2022/03/10 11:19:25;;;;;;;11.73;11.00;;;;;;;0.02;43.45;93092.59;5097916;28;20184;-80
2022/03/10 11:22:28;;;;;;;12.13;11.43;;;;;;;0.16;42.84;93124.94;5097972;28;20948;-80
2022/03/10 11:25:09;;;;;;;11.73;11.03;;;;;;;0.18;43.60;93125.53;5099665;28;20208;-80
2022/03/10 11:27:53;;;;;;;12.47;11.60;;;;;;;-0.07;43.84;93111.78;5097042;28;20236;-78